Lochiel, Pennsylvania
Current Conditions -  °F | °C
As of 12:53 PM on Saturday 20 Dec 2014 (Local Time) from KSEG Reporting Station
Overcast Overcast  
Wind Chill: 33°   Ceiling: 2700
Heat Index: 33°   Visibility: 10mi
Dew Point: 21°   Wind: 0mph
Humidity: 61%   Direction: NA
Pressure: 30.25"   Gusts: NA
Location:  40.9885°N, 76.9787°W
Report Text: KSEG 201753Z AUTO 00000KT 10SM OVC027 01/M06 A3025 RMK AO2 SLP249 T00061061 10011 21011 58018
Loading
Personal Weather Stations






























Interactive Weather Map New forecast layout! Learn more

10-Day Weather Forecast

Advertisements
Track Severe Weather on mobile